createdAt,value
2022-12-19T00:00:43.101Z,95.71
2022-12-19T00:03:11.423Z,97.01
2022-12-19T00:05:40.914Z,93.64
2022-12-19T00:08:17.359Z,93.39
2022-12-19T00:10:56.053Z,91.43
2022-12-19T00:13:24.577Z,90.50
2022-12-19T00:15:53.182Z,91.18
2022-12-19T00:18:21.313Z,89.55
2022-12-19T00:21:01.088Z,88.81
2022-12-19T00:23:30.878Z,90.60
2022-12-19T00:26:25.857Z,91.29
2022-12-19T00:28:57.282Z,91.17
2022-12-19T00:31:26.734Z,90.32
2022-12-19T00:33:58.694Z,89.92
2022-12-19T00:36:30.745Z,89.86
2022-12-19T00:39:01.128Z,88.29
2022-12-19T00:41:34.111Z,88.46
2022-12-19T00:44:05.304Z,88.32
2022-12-19T00:46:36.145Z,88.84
2022-12-19T00:49:05.756Z,88.90
2022-12-19T00:51:37.907Z,89.47
2022-12-19T00:54:11.130Z,89.69
2022-12-19T00:56:39.814Z,91.50
2022-12-19T00:59:09.208Z,89.36
2022-12-19T01:01:40.314Z,89.71
2022-12-19T01:04:29.539Z,89.66
2022-12-19T01:07:02.037Z,93.46
2022-12-19T01:09:34.101Z,92.85
2022-12-19T01:12:24.494Z,94.05
2022-12-19T01:14:57.739Z,93.59
2022-12-19T01:17:43.560Z,91.38
2022-12-19T01:20:29.062Z,91.63
2022-12-19T01:22:59.934Z,92.92
2022-12-19T01:25:31.672Z,93.40
2022-12-19T01:28:01.166Z,90.87
2022-12-19T01:30:33.288Z,89.94
2022-12-19T01:33:02.290Z,89.68
2022-12-19T01:35:30.602Z,88.51
2022-12-19T01:38:07.918Z,89.50
2022-12-19T01:40:38.483Z,88.71
2022-12-19T01:43:07.257Z,88.79
2022-12-19T01:45:43.803Z,88.59
2022-12-19T01:48:32.030Z,89.04
2022-12-19T01:51:03.317Z,89.48
2022-12-19T01:53:45.806Z,87.22
2022-12-19T01:56:24.817Z,91.33
2022-12-19T01:59:05.599Z,87.23
2022-12-19T02:01:40.889Z,88.88
2022-12-19T02:04:25.841Z,89.59
2022-12-19T02:06:57.105Z,89.78
2022-12-19T02:09:25.934Z,92.47
2022-12-19T02:11:54.605Z,89.61
2022-12-19T02:14:22.636Z,98.01
2022-12-19T02:17:35.238Z,94.13
2022-12-19T02:20:29.348Z,93.27
2022-12-19T02:23:01.559Z,88.81
2022-12-19T02:25:51.273Z,88.83
2022-12-19T02:28:33.229Z,87.87
2022-12-19T02:31:21.456Z,94.41
2022-12-19T02:34:11.617Z,87.95
2022-12-19T02:37:09.513Z,89.60
2022-12-19T02:39:51.220Z,90.55
2022-12-19T02:42:32.179Z,89.09
2022-12-19T02:45:02.816Z,89.48
2022-12-19T02:47:34.366Z,89.14
2022-12-19T02:50:04.769Z,89.73
2022-12-19T02:52:32.905Z,88.99
2022-12-19T02:55:06.547Z,89.11
2022-12-19T02:58:05.391Z,91.81
2022-12-19T03:00:45.947Z,90.16
2022-12-19T03:03:45.741Z,91.08
2022-12-19T03:06:33.273Z,91.46
2022-12-19T03:09:17.485Z,91.56
2022-12-19T03:11:50.305Z,91.70
2022-12-19T03:14:21.569Z,91.72
2022-12-19T03:16:50.158Z,92.21
2022-12-19T03:19:18.436Z,92.27
2022-12-19T03:21:50.981Z,92.43
2022-12-19T03:24:19.986Z,93.80
2022-12-19T03:26:54.138Z,92.10
2022-12-19T03:29:34.576Z,91.88
2022-12-19T03:32:07.837Z,93.18
2022-12-19T03:34:50.586Z,94.84
2022-12-19T03:37:26.676Z,92.68
2022-12-19T03:39:59.802Z,92.93
2022-12-19T03:42:50.505Z,92.71
2022-12-19T03:45:45.465Z,92.55
2022-12-19T03:48:31.341Z,91.96
2022-12-19T03:51:11.833Z,91.48
2022-12-19T03:53:59.338Z,91.28
2022-12-19T03:56:38.712Z,91.15
2022-12-19T04:00:11.126Z,90.97
2022-12-19T04:02:44.718Z,90.80
2022-12-19T04:05:21.759Z,90.70
2022-12-19T04:07:51.554Z,90.57
2022-12-19T04:10:23.239Z,90.59
2022-12-19T04:13:09.103Z,91.01
2022-12-19T04:15:49.406Z,91.25
2022-12-19T04:18:19.323Z,90.94
2022-12-19T04:21:02.390Z,91.04
2022-12-19T04:23:39.673Z,91.66
2022-12-19T04:26:09.301Z,91.41
2022-12-19T04:28:54.946Z,91.05
2022-12-19T04:31:23.961Z,91.23
2022-12-19T04:33:51.746Z,91.26
2022-12-19T04:36:19.836Z,91.37
2022-12-19T04:38:48.150Z,91.70
2022-12-19T04:41:15.980Z,90.13
2022-12-19T04:43:43.837Z,90.57
2022-12-19T04:46:15.680Z,90.59
2022-12-19T04:48:46.495Z,90.51
2022-12-19T04:51:16.871Z,90.54
2022-12-19T04:53:44.977Z,90.50
2022-12-19T04:56:13.084Z,90.76
2022-12-19T04:58:41.270Z,90.70
2022-12-19T05:01:09.835Z,90.68
2022-12-19T05:03:37.721Z,90.32
2022-12-19T05:06:13.123Z,90.90
2022-12-19T05:08:42.904Z,90.69
2022-12-19T05:11:19.173Z,90.99
2022-12-19T05:13:47.681Z,90.09
2022-12-19T05:16:16.327Z,90.58
2022-12-19T05:18:44.617Z,90.04
2022-12-19T05:21:12.477Z,89.61
2022-12-19T05:23:40.731Z,89.46
2022-12-19T05:26:08.775Z,90.13
2022-12-19T05:28:36.711Z,90.41
2022-12-19T05:31:13.240Z,90.38
2022-12-19T05:33:42.224Z,90.49
2022-12-19T05:36:11.923Z,90.98
2022-12-19T05:38:39.942Z,91.15
2022-12-19T05:41:10.179Z,91.18
2022-12-19T05:43:38.448Z,91.07
2022-12-19T05:46:07.757Z,90.78
2022-12-19T05:48:36.535Z,91.07
2022-12-19T05:51:05.154Z,91.07
2022-12-19T05:53:35.596Z,90.96
2022-12-19T05:56:11.423Z,91.59
2022-12-19T05:58:40.965Z,91.88
2022-12-19T06:01:14.172Z,91.98
2022-12-19T06:03:43.510Z,91.94
2022-12-19T06:06:14.091Z,91.46
2022-12-19T06:08:42.861Z,91.36
2022-12-19T06:11:12.968Z,91.70
2022-12-19T06:13:42.142Z,91.63
2022-12-19T06:16:19.474Z,91.63
2022-12-19T06:18:47.918Z,91.22
2022-12-19T06:21:22.236Z,91.76
2022-12-19T06:23:50.271Z,91.53
2022-12-19T06:26:20.869Z,91.57
2022-12-19T06:28:50.824Z,91.19
2022-12-19T06:31:21.213Z,90.98
2022-12-19T06:33:49.431Z,90.98
2022-12-19T06:36:23.688Z,91.21
2022-12-19T06:38:52.873Z,91.25
2022-12-19T06:41:39.759Z,91.41
2022-12-19T06:44:11.518Z,91.36
2022-12-19T06:46:41.852Z,91.46
2022-12-19T06:49:11.208Z,91.64
2022-12-19T06:51:39.378Z,91.59
2022-12-19T06:54:07.163Z,91.43
2022-12-19T06:56:40.738Z,91.86
2022-12-19T06:59:15.399Z,91.74
2022-12-19T07:01:44.819Z,91.91
2022-12-19T07:04:16.742Z,92.18
2022-12-19T07:06:49.328Z,92.74
2022-12-19T07:09:18.563Z,92.80
2022-12-19T07:11:46.793Z,92.95
2022-12-19T07:14:14.676Z,93.61
2022-12-19T07:16:42.824Z,94.13
2022-12-19T07:19:11.639Z,94.17
2022-12-19T07:21:39.631Z,94.61
2022-12-19T07:24:08.852Z,94.28
2022-12-19T07:26:37.634Z,94.63
2022-12-19T07:29:05.786Z,94.37
2022-12-19T07:31:36.168Z,94.70
2022-12-19T07:34:04.605Z,93.85
2022-12-19T07:36:32.712Z,94.15
2022-12-19T07:39:00.561Z,94.36
2022-12-19T07:41:28.765Z,94.82
2022-12-19T07:43:56.467Z,93.70
2022-12-19T07:46:24.365Z,94.06
2022-12-19T07:48:52.453Z,93.93
2022-12-19T07:51:20.262Z,93.88
2022-12-19T07:53:48.232Z,94.07
2022-12-19T07:56:17.726Z,93.89
2022-12-19T07:58:45.819Z,94.00
2022-12-19T08:01:13.823Z,94.65
2022-12-19T08:03:42.037Z,93.86
2022-12-19T08:06:10.098Z,93.43
2022-12-19T08:08:38.086Z,93.62
2022-12-19T08:11:08.540Z,93.90
2022-12-19T08:13:40.888Z,93.51
2022-12-19T08:16:13.052Z,93.59
2022-12-19T08:18:40.976Z,93.44
2022-12-19T08:21:09.822Z,93.33
2022-12-19T08:23:41.463Z,94.16
2022-12-19T08:26:12.975Z,94.12
2022-12-19T08:28:41.348Z,93.87
2022-12-19T08:31:17.935Z,94.02
2022-12-19T08:33:47.662Z,93.89
2022-12-19T08:36:19.155Z,93.46
2022-12-19T08:38:51.234Z,94.01
2022-12-19T08:41:19.821Z,93.04
2022-12-19T08:43:52.239Z,93.68
2022-12-19T08:46:22.395Z,93.08
2022-12-19T08:48:50.678Z,93.67
2022-12-19T08:51:18.890Z,93.99
2022-12-19T08:53:48.112Z,93.87
2022-12-19T08:56:19.195Z,93.18
2022-12-19T08:58:48.323Z,93.13
2022-12-19T09:01:24.197Z,93.78
2022-12-19T09:04:56.786Z,93.92
2022-12-19T09:06:40.987Z,93.37
2022-12-19T09:09:09.243Z,93.69
2022-12-19T09:11:45.747Z,93.41
2022-12-19T09:14:21.146Z,93.30
2022-12-19T09:16:49.626Z,93.13
2022-12-19T09:19:18.363Z,93.37
2022-12-19T09:21:46.324Z,93.14
2022-12-19T09:24:14.967Z,93.54
2022-12-19T09:26:44.381Z,93.41
2022-12-19T09:29:20.487Z,93.52
2022-12-19T09:31:55.768Z,93.43
2022-12-19T09:34:36.854Z,93.10
2022-12-19T09:37:08.965Z,93.12
2022-12-19T09:39:39.578Z,94.04
2022-12-19T09:42:32.096Z,93.47
2022-12-19T09:45:33.826Z,94.37
2022-12-19T09:48:03.030Z,93.58
2022-12-19T09:50:39.363Z,93.87
2022-12-19T09:53:40.290Z,93.54
2022-12-19T09:56:15.360Z,93.31
2022-12-19T09:58:50.031Z,93.96
2022-12-19T10:01:25.036Z,93.62
2022-12-19T10:04:10.641Z,92.86
2022-12-19T10:07:19.796Z,93.22
2022-12-19T10:12:12.718Z,93.06
2022-12-19T10:12:45.180Z,93.47
2022-12-19T10:15:26.490Z,93.57
2022-12-19T10:18:13.290Z,92.85
2022-12-19T10:21:36.978Z,93.82
2022-12-19T10:24:22.673Z,93.31
2022-12-19T10:26:53.652Z,93.49
2022-12-19T10:29:57.290Z,93.73
2022-12-19T10:32:28.901Z,93.56
2022-12-19T10:34:57.403Z,93.12
2022-12-19T10:37:40.678Z,93.97
2022-12-19T10:40:37.542Z,93.85
2022-12-19T10:43:33.623Z,93.47
2022-12-19T10:46:11.819Z,94.48
2022-12-19T10:48:39.950Z,94.09
2022-12-19T10:51:14.078Z,93.94
2022-12-19T10:53:52.903Z,94.24
2022-12-19T10:56:36.784Z,94.65
2022-12-19T10:59:20.833Z,95.01
2022-12-19T11:02:00.333Z,94.74
2022-12-19T11:04:33.479Z,94.76
2022-12-19T11:07:04.187Z,94.23
2022-12-19T11:09:40.224Z,94.29
2022-12-19T11:15:30.672Z,94.43
2022-12-19T11:21:16.704Z,94.84
2022-12-19T11:29:17.225Z,94.98
2022-12-19T11:29:25.646Z,94.46
2022-12-19T11:30:38.847Z,94.58
2022-12-19T11:30:47.267Z,94.60
2022-12-19T11:32:42.091Z,93.94
2022-12-19T11:35:25.385Z,94.61
2022-12-19T11:38:08.718Z,94.79
2022-12-19T11:40:49.198Z,94.95
2022-12-19T11:43:46.619Z,94.85
2022-12-19T11:46:33.315Z,95.31
2022-12-19T11:49:12.123Z,95.08
2022-12-19T11:52:01.127Z,94.84
2022-12-19T11:54:48.837Z,94.42
2022-12-19T11:57:18.216Z,94.89
2022-12-19T11:59:47.209Z,95.07
2022-12-19T12:02:33.099Z,94.96
2022-12-19T12:05:04.095Z,95.18
2022-12-19T12:08:32.643Z,94.92
2022-12-19T12:12:15.642Z,94.55
2022-12-19T12:22:05.111Z,94.80
2022-12-19T12:30:15.540Z,94.79
2022-12-19T12:31:10.434Z,95.03
2022-12-19T12:31:47.165Z,95.12
2022-12-19T12:31:58.472Z,94.75
2022-12-19T12:32:02.059Z,94.72
2022-12-19T12:35:16.375Z,95.26
2022-12-19T12:39:16.042Z,95.05
2022-12-19T12:42:08.429Z,95.30
2022-12-19T12:44:45.116Z,94.41
2022-12-19T12:47:28.071Z,94.93
2022-12-19T12:50:02.625Z,95.24
2022-12-19T12:52:39.829Z,95.31
2022-12-19T12:55:29.036Z,95.33
2022-12-19T12:57:59.355Z,94.90
2022-12-19T13:00:32.298Z,94.54
2022-12-19T13:03:19.316Z,94.70
2022-12-19T13:05:47.113Z,94.92
2022-12-19T13:08:39.557Z,94.91
2022-12-19T13:11:53.994Z,94.89
2022-12-19T13:14:40.903Z,94.89
2022-12-19T13:17:12.766Z,94.87
2022-12-19T13:20:21.543Z,94.46
2022-12-19T13:22:59.190Z,94.42
2022-12-19T13:25:27.383Z,94.45
2022-12-19T13:28:19.470Z,94.22
2022-12-19T13:31:18.690Z,94.35
2022-12-19T13:33:55.884Z,95.05
2022-12-19T13:39:57.595Z,94.80
2022-12-19T13:40:11.203Z,94.61
2022-12-19T13:43:19.132Z,94.43
2022-12-19T13:45:55.306Z,94.96
2022-12-19T13:48:30.803Z,94.92
2022-12-19T13:51:05.162Z,95.00
2022-12-19T13:53:33.604Z,94.69
2022-12-19T13:56:07.154Z,94.70
2022-12-19T13:58:38.992Z,94.61
2022-12-19T14:01:27.783Z,94.29
2022-12-19T14:04:07.734Z,94.47
2022-12-19T14:06:50.775Z,94.76
2022-12-19T14:11:27.310Z,94.62
2022-12-19T14:13:50.926Z,94.27
2022-12-19T14:15:52.464Z,94.24
2022-12-19T14:18:44.993Z,94.58
2022-12-19T14:22:06.033Z,94.48
2022-12-19T14:24:21.896Z,94.81
2022-12-19T14:28:17.163Z,94.70
2022-12-19T14:30:30.584Z,94.68
2022-12-19T14:33:43.987Z,94.74
2022-12-19T14:36:10.283Z,94.38
2022-12-19T14:39:27.689Z,94.92
2022-12-19T14:41:47.649Z,94.98
2022-12-19T14:54:06.892Z,94.79
2022-12-19T14:54:23.411Z,94.75
2022-12-19T14:54:24.919Z,94.71
2022-12-19T14:54:47.650Z,94.64
2022-12-19T14:56:45.125Z,94.36
2022-12-19T14:59:42.479Z,94.43
2022-12-19T15:02:27.998Z,94.85
2022-12-19T15:05:08.140Z,94.60
2022-12-19T15:07:42.625Z,94.26
2022-12-19T15:11:04.816Z,94.62
2022-12-19T15:14:58.688Z,94.66
2022-12-19T15:16:36.512Z,94.35
2022-12-19T15:19:11.663Z,94.55
2022-12-19T15:21:39.506Z,94.34
2022-12-19T15:24:08.861Z,94.66
2022-12-19T15:26:47.905Z,93.88
2022-12-19T15:29:21.651Z,94.06
2022-12-19T15:31:50.577Z,94.59
2022-12-19T15:34:41.677Z,94.81
2022-12-19T15:37:16.385Z,94.80
2022-12-19T15:39:45.626Z,95.05
2022-12-19T15:42:23.234Z,95.21
2022-12-19T15:44:54.135Z,94.86
2022-12-19T15:47:33.794Z,94.92
2022-12-19T15:50:14.558Z,94.83
2022-12-19T15:52:42.482Z,95.02
2022-12-19T15:55:15.781Z,95.18
2022-12-19T15:57:58.929Z,95.16
2022-12-19T16:00:31.977Z,95.43
2022-12-19T16:05:48.817Z,95.32
2022-12-19T16:08:20.641Z,95.52
2022-12-19T16:11:00.980Z,95.33
2022-12-19T16:13:32.627Z,95.54
2022-12-19T16:16:01.863Z,95.71
2022-12-19T16:18:30.245Z,95.11
2022-12-19T16:20:58.070Z,95.26
2022-12-19T16:23:26.379Z,95.10
2022-12-19T16:25:55.130Z,95.44
2022-12-19T16:28:29.443Z,95.34
2022-12-19T16:30:59.479Z,95.34
2022-12-19T16:33:30.015Z,95.99
2022-12-19T16:36:07.141Z,95.57
2022-12-19T16:38:36.550Z,95.48
2022-12-19T16:41:05.160Z,95.20
2022-12-19T16:43:37.599Z,94.97
2022-12-19T16:46:07.205Z,94.72
2022-12-19T16:48:38.310Z,95.55
2022-12-19T16:51:17.436Z,95.55
2022-12-19T16:53:48.385Z,95.40
2022-12-19T16:56:26.365Z,95.47
2022-12-19T16:58:55.639Z,95.20
2022-12-19T17:01:24.084Z,95.98
2022-12-19T17:03:52.121Z,95.98
2022-12-19T17:06:21.565Z,96.02
2022-12-19T17:08:50.006Z,95.78
2022-12-19T17:11:24.771Z,95.27
2022-12-19T17:14:00.834Z,95.26
2022-12-19T17:16:30.368Z,95.49
2022-12-19T17:18:59.320Z,95.47
2022-12-19T17:21:27.169Z,95.78
2022-12-19T17:23:55.038Z,95.71
2022-12-19T17:26:23.461Z,95.52
2022-12-19T17:28:51.484Z,95.39
2022-12-19T17:31:38.300Z,95.78
2022-12-19T17:34:13.602Z,95.61
2022-12-19T17:36:41.692Z,95.84
2022-12-19T17:39:24.969Z,95.71
2022-12-19T17:42:07.206Z,95.66
2022-12-19T17:44:35.412Z,95.82
2022-12-19T17:47:05.491Z,95.50
2022-12-19T17:49:35.753Z,95.56
2022-12-19T17:52:16.309Z,95.40
2022-12-19T17:54:44.420Z,95.27
2022-12-19T17:57:15.633Z,96.44
2022-12-19T17:59:43.796Z,96.12
2022-12-19T18:02:25.111Z,96.11
2022-12-19T18:04:54.016Z,96.16
2022-12-19T18:07:22.059Z,96.43
2022-12-19T18:09:50.112Z,95.91
2022-12-19T18:12:18.656Z,95.63
2022-12-19T18:14:46.441Z,95.19
2022-12-19T18:17:21.101Z,95.71
2022-12-19T18:19:49.346Z,95.74
2022-12-19T18:22:17.326Z,95.22
2022-12-19T18:24:45.243Z,95.45
2022-12-19T18:27:13.541Z,95.11
2022-12-19T18:29:41.504Z,95.34
2022-12-19T18:32:19.217Z,95.27
2022-12-19T18:34:47.532Z,94.69
2022-12-19T18:37:16.259Z,94.65
2022-12-19T18:39:44.486Z,94.97
2022-12-19T18:42:21.507Z,95.06
2022-12-19T18:44:49.474Z,95.21
2022-12-19T18:47:23.687Z,95.09
2022-12-19T18:49:54.720Z,95.44
2022-12-19T18:52:23.037Z,95.31
2022-12-19T18:54:51.995Z,95.27
2022-12-19T18:57:20.627Z,95.09
2022-12-19T18:59:50.457Z,95.58
2022-12-19T19:02:27.913Z,95.66
2022-12-19T19:04:56.420Z,95.87
2022-12-19T19:07:24.347Z,95.78
2022-12-19T19:09:52.295Z,95.86
2022-12-19T19:12:22.539Z,95.70
2022-12-19T19:14:50.446Z,96.26
2022-12-19T19:17:27.174Z,96.19
2022-12-19T19:20:01.346Z,95.34
2022-12-19T19:22:31.159Z,95.84
2022-12-19T19:25:00.000Z,95.50
2022-12-19T19:27:27.881Z,95.29
2022-12-19T19:29:55.723Z,94.89
2022-12-19T19:32:24.247Z,94.93
2022-12-19T19:34:52.780Z,95.21
2022-12-19T19:37:21.316Z,94.74
2022-12-19T19:39:52.390Z,94.37
2022-12-19T19:42:20.408Z,94.00
2022-12-19T19:44:49.150Z,94.13
2022-12-19T19:47:17.572Z,94.32
2022-12-19T19:49:45.469Z,94.34
2022-12-19T19:52:13.263Z,93.95
2022-12-19T19:54:41.589Z,93.36
2022-12-19T19:57:10.064Z,93.53
2022-12-19T19:59:37.998Z,93.54
2022-12-19T20:02:11.489Z,93.33
2022-12-19T20:04:40.262Z,93.69
2022-12-19T20:07:08.187Z,93.76
2022-12-19T20:09:36.157Z,93.90
2022-12-19T20:12:04.489Z,93.79
2022-12-19T20:14:32.292Z,93.59
2022-12-19T20:16:59.977Z,93.67
2022-12-19T20:19:28.042Z,93.55
2022-12-19T20:21:55.793Z,93.42
2022-12-19T20:24:23.634Z,92.81
2022-12-19T20:26:51.732Z,93.09
2022-12-19T20:29:19.392Z,93.14
2022-12-19T20:31:47.272Z,93.27
2022-12-19T20:34:16.298Z,93.12
2022-12-19T20:36:44.125Z,92.84
2022-12-19T20:39:11.949Z,92.98
2022-12-19T20:41:40.218Z,92.86
2022-12-19T20:44:08.028Z,92.64
2022-12-19T20:46:35.979Z,92.94
2022-12-19T20:49:05.127Z,92.65
2022-12-19T20:51:32.855Z,92.63
2022-12-19T20:54:00.659Z,92.93
2022-12-19T20:56:28.915Z,92.81
2022-12-19T20:58:57.222Z,92.96
2022-12-19T21:01:25.823Z,92.78
2022-12-19T21:03:54.396Z,92.63
2022-12-19T21:06:25.679Z,92.70
2022-12-19T21:08:55.372Z,92.85
2022-12-19T21:11:25.334Z,93.12
2022-12-19T21:13:53.778Z,93.13
2022-12-19T21:16:22.656Z,92.89
2022-12-19T21:18:51.601Z,92.67
2022-12-19T21:21:23.896Z,92.88
2022-12-19T21:23:53.160Z,92.87
2022-12-19T21:26:22.096Z,92.94
2022-12-19T21:28:49.972Z,93.01
2022-12-19T21:31:26.790Z,93.21
2022-12-19T21:33:56.429Z,93.19
2022-12-19T21:36:26.102Z,92.57
2022-12-19T21:38:56.113Z,92.46
2022-12-19T21:41:24.497Z,93.01
2022-12-19T21:43:55.587Z,93.54
2022-12-19T21:46:26.014Z,93.97
2022-12-19T21:48:55.976Z,93.94
2022-12-19T21:51:26.977Z,93.59
2022-12-19T21:53:57.051Z,94.29
2022-12-19T21:56:27.732Z,94.23
2022-12-19T21:59:04.241Z,94.35
2022-12-19T22:01:33.534Z,94.47
2022-12-19T22:04:09.199Z,94.42
2022-12-19T22:06:39.240Z,94.33
2022-12-19T22:09:09.986Z,94.46
2022-12-19T22:11:41.060Z,94.37
2022-12-19T22:14:11.010Z,94.37
2022-12-19T22:16:39.344Z,94.39
2022-12-19T22:19:07.902Z,94.28
2022-12-19T22:21:37.286Z,94.27
2022-12-19T22:24:05.501Z,94.40
2022-12-19T22:26:33.390Z,94.17
2022-12-19T22:29:01.626Z,94.21
2022-12-19T22:31:31.987Z,94.20
2022-12-19T22:34:05.845Z,94.06
2022-12-19T22:36:39.209Z,94.34
2022-12-19T22:39:09.790Z,94.60
2022-12-19T22:41:39.008Z,94.19
2022-12-19T22:44:08.110Z,94.65
2022-12-19T22:46:37.994Z,94.54
2022-12-19T22:49:09.069Z,94.22
2022-12-19T22:51:38.202Z,94.09
2022-12-19T22:54:06.889Z,94.18
2022-12-19T22:56:35.860Z,93.67
2022-12-19T22:59:07.432Z,93.78
2022-12-19T23:01:45.084Z,93.44
2022-12-19T23:04:16.681Z,93.60
2022-12-19T23:06:45.044Z,93.34
2022-12-19T23:09:16.360Z,93.22
2022-12-19T23:11:47.663Z,92.72
2022-12-19T23:14:20.242Z,92.78
2022-12-19T23:16:51.524Z,92.96
2022-12-19T23:19:22.659Z,92.99
2022-12-19T23:21:50.804Z,92.88
2022-12-19T23:24:19.146Z,93.41
2022-12-19T23:26:46.975Z,93.13
2022-12-19T23:29:16.471Z,93.14
2022-12-19T23:31:46.741Z,93.35
2022-12-19T23:34:15.916Z,92.90
2022-12-19T23:37:10.422Z,93.20
2022-12-19T23:39:32.938Z,93.18
2022-12-19T23:42:01.235Z,93.21
2022-12-19T23:44:29.412Z,92.65
2022-12-19T23:47:02.993Z,92.75
2022-12-19T23:49:33.950Z,93.00
2022-12-19T23:52:01.959Z,93.06
2022-12-19T23:54:30.000Z,93.29
2022-12-19T23:56:58.228Z,92.77
2022-12-19T23:59:26.147Z,92.75
